sensor_id;sensor_type;location;lat;lon;timestamp;temperature;humidity
26272;DHT22;13997;48.902;12.472;2023-04-22T00:32:35;256.70;2252.80
26272;DHT22;13997;48.902;12.472;2023-04-22T00:35:02;231.00;2252.80
26272;DHT22;13997;48.902;12.472;2023-04-22T00:37:28;231.00;2252.80
26272;DHT22;13997;48.902;12.472;2023-04-22T00:39:54;230.90;2252.80
26272;DHT22;13997;48.902;12.472;2023-04-22T00:42:20;230.80;2252.80
26272;DHT22;13997;48.902;12.472;2023-04-22T00:44:46;230.70;2252.80
26272;DHT22;13997;48.902;12.472;2023-04-22T00:47:12;230.60;2252.80
26272;DHT22;13997;48.902;12.472;2023-04-22T00:49:38;230.60;2252.80
26272;DHT22;13997;48.902;12.472;2023-04-22T00:52:04;230.60;2252.80
26272;DHT22;13997;48.902;12.472;2023-04-22T00:54:30;230.60;2252.80
26272;DHT22;13997;48.902;12.472;2023-04-22T00:56:56;230.50;2252.80
26272;DHT22;13997;48.902;12.472;2023-04-22T00:59:24;230.60;2252.80
26272;DHT22;13997;48.902;12.472;2023-04-22T01:01:50;230.50;2252.80
26272;DHT22;13997;48.902;12.472;2023-04-22T01:04:16;230.60;2252.80
26272;DHT22;13997;48.902;12.472;2023-04-22T01:06:43;230.50;2252.80
26272;DHT22;13997;48.902;12.472;2023-04-22T01:09:08;230.60;2252.80
26272;DHT22;13997;48.902;12.472;2023-04-22T01:11:34;230.60;2252.80
26272;DHT22;13997;48.902;12.472;2023-04-22T01:14:01;230.60;2252.80
26272;DHT22;13997;48.902;12.472;2023-04-22T01:16:27;230.50;2252.80
26272;DHT22;13997;48.902;12.472;2023-04-22T01:18:53;230.60;2252.80
26272;DHT22;13997;48.902;12.472;2023-04-22T01:21:19;230.50;2252.80
26272;DHT22;13997;48.902;12.472;2023-04-22T01:23:45;230.50;2252.80
26272;DHT22;13997;48.902;12.472;2023-04-22T01:26:11;230.50;2252.80
26272;DHT22;13997;48.902;12.472;2023-04-22T01:28:37;230.40;2252.80
26272;DHT22;13997;48.902;12.472;2023-04-22T01:31:03;230.40;2252.80
26272;DHT22;13997;48.902;12.472;2023-04-22T01:33:29;230.50;2252.80
26272;DHT22;13997;48.902;12.472;2023-04-22T01:35:55;230.40;2252.80
26272;DHT22;13997;48.902;12.472;2023-04-22T01:38:21;230.40;2252.80
26272;DHT22;13997;48.902;12.472;2023-04-22T01:40:47;205.70;2252.80
26272;DHT22;13997;48.902;12.472;2023-04-22T01:43:14;205.70;2252.80
26272;DHT22;13997;48.902;12.472;2023-04-22T01:45:39;205.70;2252.80
26272;DHT22;13997;48.902;12.472;2023-04-22T01:48:05;205.70;2252.80
26272;DHT22;13997;48.902;12.472;2023-04-22T01:50:33;205.60;2252.80
26272;DHT22;13997;48.902;12.472;2023-04-22T01:52:59;205.60;2252.80
26272;DHT22;13997;48.902;12.472;2023-04-22T01:55:25;205.60;2252.80
26272;DHT22;13997;48.902;12.472;2023-04-22T01:57:50;205.50;2252.80
26272;DHT22;13997;48.902;12.472;2023-04-22T02:00:17;205.50;2252.80
26272;DHT22;13997;48.902;12.472;2023-04-22T02:02:42;205.50;2252.80
26272;DHT22;13997;48.902;12.472;2023-04-22T02:05:08;205.50;2252.80
26272;DHT22;13997;48.902;12.472;2023-04-22T02:07:34;205.50;2252.80
26272;DHT22;13997;48.902;12.472;2023-04-22T02:10:02;205.50;2252.80
26272;DHT22;13997;48.902;12.472;2023-04-22T02:12:29;205.50;2252.80
26272;DHT22;13997;48.902;12.472;2023-04-22T02:14:55;205.50;2252.80
26272;DHT22;13997;48.902;12.472;2023-04-22T02:17:20;205.50;2252.80
26272;DHT22;13997;48.902;12.472;2023-04-22T02:19:46;205.50;2252.80
26272;DHT22;13997;48.902;12.472;2023-04-22T02:22:12;205.40;2252.80
26272;DHT22;13997;48.902;12.472;2023-04-22T02:24:37;205.40;2252.80
26272;DHT22;13997;48.902;12.472;2023-04-22T02:27:03;205.40;2252.80
26272;DHT22;13997;48.902;12.472;2023-04-22T02:29:28;205.40;2252.80
26272;DHT22;13997;48.902;12.472;2023-04-22T02:31:57;205.40;2252.80
26272;DHT22;13997;48.902;12.472;2023-04-22T02:34:22;205.40;2252.80
26272;DHT22;13997;48.902;12.472;2023-04-22T02:36:48;205.40;2252.80
26272;DHT22;13997;48.902;12.472;2023-04-22T02:39:13;205.40;2252.80
26272;DHT22;13997;48.902;12.472;2023-04-22T02:41:39;205.40;2252.80
26272;DHT22;13997;48.902;12.472;2023-04-22T02:44:05;205.40;2252.80
26272;DHT22;13997;48.902;12.472;2023-04-22T02:46:30;205.40;2252.80
26272;DHT22;13997;48.902;12.472;2023-04-22T02:48:56;205.40;2252.80
26272;DHT22;13997;48.902;12.472;2023-04-22T02:51:22;205.30;2252.80
26272;DHT22;13997;48.902;12.472;2023-04-22T02:53:47;205.30;2252.80
26272;DHT22;13997;48.902;12.472;2023-04-22T02:56:13;205.30;2252.80
26272;DHT22;13997;48.902;12.472;2023-04-22T02:58:38;205.20;2252.80
26272;DHT22;13997;48.902;12.472;2023-04-22T03:01:04;205.20;2252.80
26272;DHT22;13997;48.902;12.472;2023-04-22T03:03:30;205.20;2252.80
26272;DHT22;13997;48.902;12.472;2023-04-22T03:05:56;205.10;2252.80
26272;DHT22;13997;48.902;12.472;2023-04-22T03:08:21;205.10;2252.80
26272;DHT22;13997;48.902;12.472;2023-04-22T03:10:47;205.10;2252.80
26272;DHT22;13997;48.902;12.472;2023-04-22T03:13:13;205.00;2252.80
26272;DHT22;13997;48.902;12.472;2023-04-22T03:15:42;205.00;2252.80
26272;DHT22;13997;48.902;12.472;2023-04-22T03:18:07;205.00;2252.80
26272;DHT22;13997;48.902;12.472;2023-04-22T03:20:34;205.00;2252.80
26272;DHT22;13997;48.902;12.472;2023-04-22T03:23:00;205.00;2252.80
26272;DHT22;13997;48.902;12.472;2023-04-22T03:25:25;205.10;2252.80
26272;DHT22;13997;48.902;12.472;2023-04-22T03:27:51;205.10;2252.80
26272;DHT22;13997;48.902;12.472;2023-04-22T03:30:16;205.10;2252.80
26272;DHT22;13997;48.902;12.472;2023-04-22T03:32:42;205.10;2252.80
26272;DHT22;13997;48.902;12.472;2023-04-22T03:35:08;204.90;2252.80
26272;DHT22;13997;48.902;12.472;2023-04-22T03:37:33;204.90;2252.80
26272;DHT22;13997;48.902;12.472;2023-04-22T03:39:59;204.90;2252.80
26272;DHT22;13997;48.902;12.472;2023-04-22T03:42:25;204.90;2252.80
26272;DHT22;13997;48.902;12.472;2023-04-22T03:44:50;204.90;2252.80
26272;DHT22;13997;48.902;12.472;2023-04-22T03:47:16;204.90;2252.80
26272;DHT22;13997;48.902;12.472;2023-04-22T03:49:42;204.90;2252.80
26272;DHT22;13997;48.902;12.472;2023-04-22T03:52:07;204.90;2252.80
26272;DHT22;13997;48.902;12.472;2023-04-22T03:54:33;204.90;2252.80
26272;DHT22;13997;48.902;12.472;2023-04-22T03:56:58;204.90;2252.80
26272;DHT22;13997;48.902;12.472;2023-04-22T03:59:24;204.90;2252.80
26272;DHT22;13997;48.902;12.472;2023-04-22T04:01:50;204.80;2252.80
26272;DHT22;13997;48.902;12.472;2023-04-22T04:04:17;180.10;2252.80
26272;DHT22;13997;48.902;12.472;2023-04-22T04:06:42;180.10;2252.80
26272;DHT22;13997;48.902;12.472;2023-04-22T04:09:08;180.10;2252.80
26272;DHT22;13997;48.902;12.472;2023-04-22T04:11:33;180.00;2252.80
26272;DHT22;13997;48.902;12.472;2023-04-22T04:13:59;180.00;2252.80
26272;DHT22;13997;48.902;12.472;2023-04-22T04:16:25;180.00;2252.80
26272;DHT22;13997;48.902;12.472;2023-04-22T04:18:50;180.00;2252.80
26272;DHT22;13997;48.902;12.472;2023-04-22T04:21:16;180.00;2252.80
26272;DHT22;13997;48.902;12.472;2023-04-22T04:23:42;180.00;2252.80
26272;DHT22;13997;48.902;12.472;2023-04-22T04:26:07;180.00;2252.80
26272;DHT22;13997;48.902;12.472;2023-04-22T04:28:33;180.00;2252.80
26272;DHT22;13997;48.902;12.472;2023-04-22T04:30:59;179.90;2252.80
26272;DHT22;13997;48.902;12.472;2023-04-22T04:33:27;180.00;2252.80
26272;DHT22;13997;48.902;12.472;2023-04-22T04:35:53;180.00;2252.80
26272;DHT22;13997;48.902;12.472;2023-04-22T04:38:18;180.10;2252.80
26272;DHT22;13997;48.902;12.472;2023-04-22T04:40:44;180.10;2252.80
26272;DHT22;13997;48.902;12.472;2023-04-22T04:43:10;180.10;2252.80
26272;DHT22;13997;48.902;12.472;2023-04-22T04:45:37;204.80;2252.80
26272;DHT22;13997;48.902;12.472;2023-04-22T04:48:04;204.80;2252.80
26272;DHT22;13997;48.902;12.472;2023-04-22T04:50:31;204.80;2252.80
26272;DHT22;13997;48.902;12.472;2023-04-22T04:52:57;204.80;2252.80
26272;DHT22;13997;48.902;12.472;2023-04-22T04:55:22;204.90;2252.80
26272;DHT22;13997;48.902;12.472;2023-04-22T04:57:48;204.90;2252.80
26272;DHT22;13997;48.902;12.472;2023-04-22T05:00:13;204.90;2252.80
26272;DHT22;13997;48.902;12.472;2023-04-22T05:02:39;204.90;2252.80
26272;DHT22;13997;48.902;12.472;2023-04-22T05:05:06;204.90;2252.80
26272;DHT22;13997;48.902;12.472;2023-04-22T05:07:32;205.00;2252.80
26272;DHT22;13997;48.902;12.472;2023-04-22T05:09:59;205.00;2252.80
26272;DHT22;13997;48.902;12.472;2023-04-22T05:12:25;205.10;2252.80
26272;DHT22;13997;48.902;12.472;2023-04-22T05:14:50;205.20;2252.80
26272;DHT22;13997;48.902;12.472;2023-04-22T05:17:16;205.30;2252.80
26272;DHT22;13997;48.902;12.472;2023-04-22T05:19:41;205.30;2252.80
26272;DHT22;13997;48.902;12.472;2023-04-22T05:22:07;205.30;2252.80
26272;DHT22;13997;48.902;12.472;2023-04-22T05:24:33;205.40;2252.80
26272;DHT22;13997;48.902;12.472;2023-04-22T05:26:59;205.50;2252.80
26272;DHT22;13997;48.902;12.472;2023-04-22T05:29:25;205.60;2252.80
26272;DHT22;13997;48.902;12.472;2023-04-22T05:31:51;230.40;2252.80
26272;DHT22;13997;48.902;12.472;2023-04-22T05:34:17;230.50;2252.80
26272;DHT22;13997;48.902;12.472;2023-04-22T05:36:42;230.70;2252.80
26272;DHT22;13997;48.902;12.472;2023-04-22T05:39:08;230.80;2252.80
26272;DHT22;13997;48.902;12.472;2023-04-22T05:41:33;231.00;2252.80
26272;DHT22;13997;48.902;12.472;2023-04-22T05:43:59;231.20;2252.80
26272;DHT22;13997;48.902;12.472;2023-04-22T05:46:24;256.00;2252.80
26272;DHT22;13997;48.902;12.472;2023-04-22T05:48:50;256.10;2252.80
26272;DHT22;13997;48.902;12.472;2023-04-22T05:51:16;256.30;2252.80
26272;DHT22;13997;48.902;12.472;2023-04-22T05:53:42;256.40;2252.80
26272;DHT22;13997;48.902;12.472;2023-04-22T05:56:07;256.60;2252.80
26272;DHT22;13997;48.902;12.472;2023-04-22T05:58:33;256.80;2252.80
26272;DHT22;13997;48.902;12.472;2023-04-22T06:00:59;256.90;2252.80
26272;DHT22;13997;48.902;12.472;2023-04-22T06:03:25;281.70;2278.40
26272;DHT22;13997;48.902;12.472;2023-04-22T06:05:51;281.80;2278.40
26272;DHT22;13997;48.902;12.472;2023-04-22T06:08:17;281.90;2278.40
26272;DHT22;13997;48.902;12.472;2023-04-22T06:10:43;282.00;2278.40
26272;DHT22;13997;48.902;12.472;2023-04-22T06:13:09;282.10;2278.40
26272;DHT22;13997;48.902;12.472;2023-04-22T06:15:35;282.20;2278.40
26272;DHT22;13997;48.902;12.472;2023-04-22T06:18:00;282.30;2278.40
26272;DHT22;13997;48.902;12.472;2023-04-22T06:20:26;282.40;2278.40
26272;DHT22;13997;48.902;12.472;2023-04-22T06:22:52;282.50;2278.40
26272;DHT22;13997;48.902;12.472;2023-04-22T06:25:17;307.30;2304.00
26272;DHT22;13997;48.902;12.472;2023-04-22T06:27:43;307.40;2304.00
26272;DHT22;13997;48.902;12.472;2023-04-22T06:30:09;307.40;2304.00
26272;DHT22;13997;48.902;12.472;2023-04-22T06:32:36;307.50;2304.00
26272;DHT22;13997;48.902;12.472;2023-04-22T06:35:01;307.60;2304.00
26272;DHT22;13997;48.902;12.472;2023-04-22T06:37:27;307.80;2304.00
26272;DHT22;13997;48.902;12.472;2023-04-22T06:39:52;308.00;2304.00
26272;DHT22;13997;48.902;12.472;2023-04-22T06:42:18;332.80;2329.60
26272;DHT22;13997;48.902;12.472;2023-04-22T06:44:44;333.10;2329.60
26272;DHT22;13997;48.902;12.472;2023-04-22T06:47:09;333.20;2329.60
26272;DHT22;13997;48.902;12.472;2023-04-22T06:49:35;333.30;2329.60
26272;DHT22;13997;48.902;12.472;2023-04-22T06:52:03;333.50;2329.60
26272;DHT22;13997;48.902;12.472;2023-04-22T06:54:28;333.70;2329.60
26272;DHT22;13997;48.902;12.472;2023-04-22T06:56:54;358.50;2329.60
26272;DHT22;13997;48.902;12.472;2023-04-22T06:59:20;358.70;2329.60
26272;DHT22;13997;48.902;12.472;2023-04-22T07:01:45;358.90;2329.60
26272;DHT22;13997;48.902;12.472;2023-04-22T07:04:11;359.10;2329.60
26272;DHT22;13997;48.902;12.472;2023-04-22T07:06:36;359.30;2329.60
26272;DHT22;13997;48.902;12.472;2023-04-22T07:09:02;384.10;2329.60
26272;DHT22;13997;48.902;12.472;2023-04-22T07:11:28;384.20;2329.60
26272;DHT22;13997;48.902;12.472;2023-04-22T07:13:56;384.30;2329.60
26272;DHT22;13997;48.902;12.472;2023-04-22T07:16:21;384.30;2329.60
26272;DHT22;13997;48.902;12.472;2023-04-22T07:18:47;384.40;2329.60
26272;DHT22;13997;48.902;12.472;2023-04-22T07:21:12;384.40;2329.60
26272;DHT22;13997;48.902;12.472;2023-04-22T07:23:38;384.40;2329.60
26272;DHT22;13997;48.902;12.472;2023-04-22T07:26:04;384.40;2329.60
26272;DHT22;13997;48.902;12.472;2023-04-22T07:28:29;384.50;2329.60
26272;DHT22;13997;48.902;12.472;2023-04-22T07:30:55;384.50;2329.60
26272;DHT22;13997;48.902;12.472;2023-04-22T07:35:47;384.70;2329.60
26272;DHT22;13997;48.902;12.472;2023-04-22T07:43:05;409.70;2355.20
26272;DHT22;13997;48.902;12.472;2023-04-22T07:45:31;410.10;2355.20
26272;DHT22;13997;48.902;12.472;2023-04-22T07:47:57;410.20;2355.20
26272;DHT22;13997;48.902;12.472;2023-04-22T07:50:23;410.20;2355.20
26272;DHT22;13997;48.902;12.472;2023-04-22T07:52:48;410.20;2355.20
26272;DHT22;13997;48.902;12.472;2023-04-22T07:55:14;410.20;2355.20
26272;DHT22;13997;48.902;12.472;2023-04-22T07:57:40;410.10;2355.20
26272;DHT22;13997;48.902;12.472;2023-04-22T08:00:06;410.10;2355.20
26272;DHT22;13997;48.902;12.472;2023-04-22T08:02:32;410.10;2355.20
26272;DHT22;13997;48.902;12.472;2023-04-22T08:04:58;410.20;2355.20
26272;DHT22;13997;48.902;12.472;2023-04-22T08:07:24;410.20;2355.20
26272;DHT22;13997;48.902;12.472;2023-04-22T08:09:49;410.40;2355.20
26272;DHT22;13997;48.902;12.472;2023-04-22T08:12:15;410.40;2355.20
26272;DHT22;13997;48.902;12.472;2023-04-22T08:14:41;435.20;2355.20
26272;DHT22;13997;48.902;12.472;2023-04-22T08:17:06;435.30;2355.20
26272;DHT22;13997;48.902;12.472;2023-04-22T08:19:32;435.30;2355.20
26272;DHT22;13997;48.902;12.472;2023-04-22T08:21:57;435.30;2355.20
26272;DHT22;13997;48.902;12.472;2023-04-22T08:24:23;435.40;2355.20
26272;DHT22;13997;48.902;12.472;2023-04-22T08:26:48;435.60;2355.20
26272;DHT22;13997;48.902;12.472;2023-04-22T08:29:14;435.60;2355.20
26272;DHT22;13997;48.902;12.472;2023-04-22T08:31:40;435.60;2355.20
26272;DHT22;13997;48.902;12.472;2023-04-22T08:34:06;435.50;2355.20
26272;DHT22;13997;48.902;12.472;2023-04-22T08:36:32;435.70;2355.20
26272;DHT22;13997;48.902;12.472;2023-04-22T08:38:57;435.80;2355.20
26272;DHT22;13997;48.902;12.472;2023-04-22T08:41:23;436.00;2355.20
26272;DHT22;13997;48.902;12.472;2023-04-22T08:43:49;436.10;2355.20
26272;DHT22;13997;48.902;12.472;2023-04-22T08:46:16;460.80;2380.80
26272;DHT22;13997;48.902;12.472;2023-04-22T08:48:45;460.90;2380.80
26272;DHT22;13997;48.902;12.472;2023-04-22T08:51:12;460.90;2380.80
26272;DHT22;13997;48.902;12.472;2023-04-22T08:53:39;461.00;2380.80
26272;DHT22;13997;48.902;12.472;2023-04-22T08:56:05;460.90;2380.80
26272;DHT22;13997;48.902;12.472;2023-04-22T08:58:32;461.10;2380.80
26272;DHT22;13997;48.902;12.472;2023-04-22T09:00:58;461.20;2380.80
26272;DHT22;13997;48.902;12.472;2023-04-22T09:03:25;461.30;2380.80
26272;DHT22;13997;48.902;12.472;2023-04-22T09:05:50;461.30;2380.80
26272;DHT22;13997;48.902;12.472;2023-04-22T09:08:18;461.30;2380.80
26272;DHT22;13997;48.902;12.472;2023-04-22T09:10:44;461.20;2380.80
26272;DHT22;13997;48.902;12.472;2023-04-22T09:13:10;461.10;2380.80
26272;DHT22;13997;48.902;12.472;2023-04-22T09:15:37;461.10;2380.80
26272;DHT22;13997;48.902;12.472;2023-04-22T09:18:03;461.20;2380.80
26272;DHT22;13997;48.902;12.472;2023-04-22T09:20:30;461.30;2380.80
26272;DHT22;13997;48.902;12.472;2023-04-22T09:22:56;461.40;2380.80
26272;DHT22;13997;48.902;12.472;2023-04-22T09:25:27;461.40;2380.80
26272;DHT22;13997;48.902;12.472;2023-04-22T09:27:54;461.60;2380.80
26272;DHT22;13997;48.902;12.472;2023-04-22T09:30:27;486.50;2380.80
26272;DHT22;13997;48.902;12.472;2023-04-22T09:32:57;486.60;2380.80
26272;DHT22;13997;48.902;12.472;2023-04-22T09:35:31;486.80;2380.80
26272;DHT22;13997;48.902;12.472;2023-04-22T09:37:58;486.90;2380.80
26272;DHT22;13997;48.902;12.472;2023-04-22T09:40:24;487.00;2380.80
26272;DHT22;13997;48.902;12.472;2023-04-22T09:42:52;487.00;2380.80
26272;DHT22;13997;48.902;12.472;2023-04-22T09:47:54;487.00;2380.80
26272;DHT22;13997;48.902;12.472;2023-04-22T09:50:24;487.10;2380.80
26272;DHT22;13997;48.902;12.472;2023-04-22T09:52:57;487.10;2380.80
26272;DHT22;13997;48.902;12.472;2023-04-22T09:55:24;487.20;2380.80
26272;DHT22;13997;48.902;12.472;2023-04-22T09:57:52;512.00;2380.80
26272;DHT22;13997;48.902;12.472;2023-04-22T10:00:19;512.10;2380.80
26272;DHT22;13997;48.902;12.472;2023-04-22T10:02:45;512.20;2380.80
26272;DHT22;13997;48.902;12.472;2023-04-22T10:05:11;512.30;2380.80
26272;DHT22;13997;48.902;12.472;2023-04-22T10:07:38;512.40;2380.80
26272;DHT22;13997;48.902;12.472;2023-04-22T10:10:07;512.50;2380.80
26272;DHT22;13997;48.902;12.472;2023-04-22T10:12:35;512.70;2380.80
26272;DHT22;13997;48.902;12.472;2023-04-22T10:15:01;512.70;2380.80
26272;DHT22;13997;48.902;12.472;2023-04-22T10:17:29;512.70;2380.80
26272;DHT22;13997;48.902;12.472;2023-04-22T10:19:56;512.70;2380.80
26272;DHT22;13997;48.902;12.472;2023-04-22T10:22:22;512.70;2380.80
26272;DHT22;13997;48.902;12.472;2023-04-22T10:24:48;512.70;2380.80
26272;DHT22;13997;48.902;12.472;2023-04-22T10:27:20;512.60;2380.80
26272;DHT22;13997;48.902;12.472;2023-04-22T10:29:46;512.70;2380.80
26272;DHT22;13997;48.902;12.472;2023-04-22T10:34:45;537.70;2406.40
26272;DHT22;13997;48.902;12.472;2023-04-22T10:37:13;537.90;2406.40
26272;DHT22;13997;48.902;12.472;2023-04-22T10:39:40;537.90;2406.40
26272;DHT22;13997;48.902;12.472;2023-04-22T10:42:11;537.90;2406.40
26272;DHT22;13997;48.902;12.472;2023-04-22T10:44:52;537.80;2406.40
26272;DHT22;13997;48.902;12.472;2023-04-22T10:50:24;537.90;2406.40
26272;DHT22;13997;48.902;12.472;2023-04-22T10:52:59;537.80;2406.40
26272;DHT22;13997;48.902;12.472;2023-04-22T10:55:48;537.70;2406.40
26272;DHT22;13997;48.902;12.472;2023-04-22T10:58:19;537.90;2406.40
26272;DHT22;13997;48.902;12.472;2023-04-22T11:00:44;538.00;2406.40
26272;DHT22;13997;48.902;12.472;2023-04-22T11:03:14;538.10;2406.40
26272;DHT22;13997;48.902;12.472;2023-04-22T11:05:40;538.10;2406.40
26272;DHT22;13997;48.902;12.472;2023-04-22T11:08:15;538.20;2406.40
26272;DHT22;13997;48.902;12.472;2023-04-22T11:10:46;538.20;2406.40
26272;DHT22;13997;48.902;12.472;2023-04-22T11:13:19;538.20;2406.40
26272;DHT22;13997;48.902;12.472;2023-04-22T11:15:47;538.20;2406.40
26272;DHT22;13997;48.902;12.472;2023-04-22T11:18:19;538.30;2406.40
26272;DHT22;13997;48.902;12.472;2023-04-22T11:20:45;538.40;2406.40
26272;DHT22;13997;48.902;12.472;2023-04-22T11:23:16;563.30;2432.00
26272;DHT22;13997;48.902;12.472;2023-04-22T11:25:42;563.30;2432.00
26272;DHT22;13997;48.902;12.472;2023-04-22T11:28:07;563.30;2329.60
26272;DHT22;13997;48.902;12.472;2023-04-22T11:30:34;563.30;2355.20
26272;DHT22;13997;48.902;12.472;2023-04-22T11:32:59;563.40;2380.80
26272;DHT22;13997;48.902;12.472;2023-04-22T11:35:30;563.40;2380.80
26272;DHT22;13997;48.902;12.472;2023-04-22T11:40:25;563.30;2406.40
26272;DHT22;13997;48.902;12.472;2023-04-22T11:42:51;563.20;2380.80
26272;DHT22;13997;48.902;12.472;2023-04-22T11:45:19;563.20;2406.40
26272;DHT22;13997;48.902;12.472;2023-04-22T11:47:45;563.20;2432.00
26272;DHT22;13997;48.902;12.472;2023-04-22T11:50:12;563.20;2380.80
26272;DHT22;13997;48.902;12.472;2023-04-22T11:52:47;538.40;2380.80
26272;DHT22;13997;48.902;12.472;2023-04-22T11:57:39;563.20;2432.00
26272;DHT22;13997;48.902;12.472;2023-04-22T12:00:06;563.30;2380.80
26272;DHT22;13997;48.902;12.472;2023-04-22T12:02:31;563.30;2278.40
26272;DHT22;13997;48.902;12.472;2023-04-22T12:04:58;563.30;2278.40
26272;DHT22;13997;48.902;12.472;2023-04-22T12:07:27;563.30;2278.40
26272;DHT22;13997;48.902;12.472;2023-04-22T12:09:53;563.40;2304.00
26272;DHT22;13997;48.902;12.472;2023-04-22T12:12:24;563.50;2355.20
26272;DHT22;13997;48.902;12.472;2023-04-22T12:14:50;563.60;2304.00
26272;DHT22;13997;48.902;12.472;2023-04-22T12:17:24;563.70;2329.60
26272;DHT22;13997;48.902;12.472;2023-04-22T12:19:56;563.80;2329.60
26272;DHT22;13997;48.902;12.472;2023-04-22T12:22:26;563.70;2201.60
26272;DHT22;13997;48.902;12.472;2023-04-22T12:24:52;563.50;2304.00
26272;DHT22;13997;48.902;12.472;2023-04-22T12:27:19;563.40;2304.00
26272;DHT22;13997;48.902;12.472;2023-04-22T12:29:55;563.30;2252.80
26272;DHT22;13997;48.902;12.472;2023-04-22T12:32:21;563.30;2278.40
26272;DHT22;13997;48.902;12.472;2023-04-22T12:34:48;563.30;2252.80
26272;DHT22;13997;48.902;12.472;2023-04-22T12:37:14;563.30;2278.40
26272;DHT22;13997;48.902;12.472;2023-04-22T12:39:39;563.40;2252.80
26272;DHT22;13997;48.902;12.472;2023-04-22T12:42:06;563.60;2278.40
26272;DHT22;13997;48.902;12.472;2023-04-22T12:44:32;563.70;2176.00
26272;DHT22;13997;48.902;12.472;2023-04-22T12:46:57;563.90;2150.40
26272;DHT22;13997;48.902;12.472;2023-04-22T12:49:24;564.00;2073.60
26272;DHT22;13997;48.902;12.472;2023-04-22T12:51:49;564.10;2150.40
26272;DHT22;13997;48.902;12.472;2023-04-22T12:54:17;588.90;2048.00
26272;DHT22;13997;48.902;12.472;2023-04-22T12:56:44;589.00;2150.40
26272;DHT22;13997;48.902;12.472;2023-04-22T12:59:10;589.00;2022.40
26272;DHT22;13997;48.902;12.472;2023-04-22T13:01:35;589.00;1971.20
26272;DHT22;13997;48.902;12.472;2023-04-22T13:04:01;589.00;2124.80
26272;DHT22;13997;48.902;12.472;2023-04-22T13:06:26;589.00;1971.20
26272;DHT22;13997;48.902;12.472;2023-04-22T13:08:53;589.10;1971.20
26272;DHT22;13997;48.902;12.472;2023-04-22T13:11:19;589.30;2099.20
26272;DHT22;13997;48.902;12.472;2023-04-22T13:13:45;589.50;1996.80
26272;DHT22;13997;48.902;12.472;2023-04-22T13:16:10;589.50;1920.00
26272;DHT22;13997;48.902;12.472;2023-04-22T13:18:36;589.70;1945.60
26272;DHT22;13997;48.902;12.472;2023-04-22T13:21:02;614.40;1996.80
26272;DHT22;13997;48.902;12.472;2023-04-22T13:23:27;614.40;1971.20
26272;DHT22;13997;48.902;12.472;2023-04-22T13:25:53;614.40;1740.80
26272;DHT22;13997;48.902;12.472;2023-04-22T13:28:18;614.40;1715.20
26272;DHT22;13997;48.902;12.472;2023-04-22T13:30:44;589.60;1740.80
26272;DHT22;13997;48.902;12.472;2023-04-22T13:33:10;589.40;1894.40
26272;DHT22;13997;48.902;12.472;2023-04-22T13:35:35;589.50;1868.80
26272;DHT22;13997;48.902;12.472;2023-04-22T13:38:01;589.40;1920.00
26272;DHT22;13997;48.902;12.472;2023-04-22T13:40:27;589.40;1868.80
26272;DHT22;13997;48.902;12.472;2023-04-22T13:42:53;589.10;1817.60
26272;DHT22;13997;48.902;12.472;2023-04-22T13:45:19;588.80;1868.80
26272;DHT22;13997;48.902;12.472;2023-04-22T13:47:44;564.10;1868.80
26272;DHT22;13997;48.902;12.472;2023-04-22T13:50:10;564.00;1868.80
26272;DHT22;13997;48.902;12.472;2023-04-22T13:52:36;564.10;1894.40
26272;DHT22;13997;48.902;12.472;2023-04-22T13:55:02;564.00;1817.60
26272;DHT22;13997;48.902;12.472;2023-04-22T13:57:28;564.00;1868.80
26272;DHT22;13997;48.902;12.472;2023-04-22T13:59:53;564.00;1792.00
26272;DHT22;13997;48.902;12.472;2023-04-22T14:02:19;564.00;1817.60
26272;DHT22;13997;48.902;12.472;2023-04-22T14:04:44;563.90;1817.60
26272;DHT22;13997;48.902;12.472;2023-04-22T14:07:11;563.90;1792.00
26272;DHT22;13997;48.902;12.472;2023-04-22T14:09:37;563.80;1843.20
26272;DHT22;13997;48.902;12.472;2023-04-22T14:12:04;563.80;1843.20
26272;DHT22;13997;48.902;12.472;2023-04-22T14:14:29;563.80;1792.00
26272;DHT22;13997;48.902;12.472;2023-04-22T14:16:55;563.80;1766.40
26272;DHT22;13997;48.902;12.472;2023-04-22T14:19:20;563.70;1792.00
26272;DHT22;13997;48.902;12.472;2023-04-22T14:21:47;563.60;1792.00
26272;DHT22;13997;48.902;12.472;2023-04-22T14:24:13;563.50;1766.40
26272;DHT22;13997;48.902;12.472;2023-04-22T14:26:39;563.50;1817.60
26272;DHT22;13997;48.902;12.472;2023-04-22T14:29:05;563.50;1868.80
26272;DHT22;13997;48.902;12.472;2023-04-22T14:31:30;563.40;1843.20
26272;DHT22;13997;48.902;12.472;2023-04-22T14:33:56;563.40;1843.20
26272;DHT22;13997;48.902;12.472;2023-04-22T14:36:21;563.50;1868.80
26272;DHT22;13997;48.902;12.472;2023-04-22T14:38:47;563.60;1868.80
26272;DHT22;13997;48.902;12.472;2023-04-22T14:41:12;563.60;1894.40
26272;DHT22;13997;48.902;12.472;2023-04-22T14:43:38;563.70;1920.00
26272;DHT22;13997;48.902;12.472;2023-04-22T14:46:04;563.80;1920.00
26272;DHT22;13997;48.902;12.472;2023-04-22T14:48:29;563.90;1920.00
26272;DHT22;13997;48.902;12.472;2023-04-22T14:50:57;563.80;1868.80
26272;DHT22;13997;48.902;12.472;2023-04-22T14:53:24;563.80;1792.00
26272;DHT22;13997;48.902;12.472;2023-04-22T14:55:50;563.90;1792.00
26272;DHT22;13997;48.902;12.472;2023-04-22T14:58:17;563.90;1792.00
26272;DHT22;13997;48.902;12.472;2023-04-22T15:00:42;563.90;1792.00
26272;DHT22;13997;48.902;12.472;2023-04-22T15:03:08;563.90;1792.00
26272;DHT22;13997;48.902;12.472;2023-04-22T15:05:34;563.90;1817.60
26272;DHT22;13997;48.902;12.472;2023-04-22T15:07:59;563.90;1766.40
26272;DHT22;13997;48.902;12.472;2023-04-22T15:10:25;563.90;1766.40
26272;DHT22;13997;48.902;12.472;2023-04-22T15:12:51;563.80;1740.80
26272;DHT22;13997;48.902;12.472;2023-04-22T15:15:17;563.80;1766.40
26272;DHT22;13997;48.902;12.472;2023-04-22T15:17:43;563.80;1766.40
26272;DHT22;13997;48.902;12.472;2023-04-22T15:20:10;563.90;1843.20
26272;DHT22;13997;48.902;12.472;2023-04-22T15:22:37;563.90;1868.80